sensor_id;sensor_type;location;lat;lon;timestamp;P1;durP1;ratioP1;P2;durP2;ratioP2
61188;SDS011;47054;39.716;2.904;2023-03-01T00:01:38;7.82;;;2.78;;
61188;SDS011;47054;39.716;2.904;2023-03-01T00:04:23;5.30;;;2.35;;
61188;SDS011;47054;39.716;2.904;2023-03-01T00:07:08;5.82;;;2.55;;
61188;SDS011;47054;39.716;2.904;2023-03-01T00:09:53;7.20;;;2.53;;
61188;SDS011;47054;39.716;2.904;2023-03-01T00:12:38;6.45;;;2.60;;
61188;SDS011;47054;39.716;2.904;2023-03-01T00:15:22;4.28;;;2.53;;
61188;SDS011;47054;39.716;2.904;2023-03-01T00:18:07;6.35;;;2.40;;
61188;SDS011;47054;39.716;2.904;2023-03-01T00:20:53;8.57;;;2.42;;
61188;SDS011;47054;39.716;2.904;2023-03-01T00:23:38;7.38;;;2.38;;
61188;SDS011;47054;39.716;2.904;2023-03-01T00:26:24;6.95;;;2.30;;
61188;SDS011;47054;39.716;2.904;2023-03-01T00:29:11;7.25;;;2.60;;
61188;SDS011;47054;39.716;2.904;2023-03-01T00:31:55;7.00;;;2.72;;
61188;SDS011;47054;39.716;2.904;2023-03-01T00:34:40;6.63;;;2.70;;
61188;SDS011;47054;39.716;2.904;2023-03-01T00:37:24;8.18;;;2.40;;
61188;SDS011;47054;39.716;2.904;2023-03-01T00:40:09;9.27;;;2.97;;
61188;SDS011;47054;39.716;2.904;2023-03-01T00:42:54;5.05;;;2.30;;
61188;SDS011;47054;39.716;2.904;2023-03-01T00:45:39;7.43;;;2.30;;
61188;SDS011;47054;39.716;2.904;2023-03-01T00:48:23;5.25;;;2.53;;
61188;SDS011;47054;39.716;2.904;2023-03-01T00:51:15;4.97;;;2.40;;
61188;SDS011;47054;39.716;2.904;2023-03-01T00:54:02;4.90;;;2.20;;
61188;SDS011;47054;39.716;2.904;2023-03-01T00:56:46;6.25;;;2.40;;
61188;SDS011;47054;39.716;2.904;2023-03-01T00:59:31;5.95;;;2.00;;
61188;SDS011;47054;39.716;2.904;2023-03-01T01:02:17;6.32;;;2.40;;
61188;SDS011;47054;39.716;2.904;2023-03-01T01:05:02;5.35;;;2.38;;
61188;SDS011;47054;39.716;2.904;2023-03-01T01:07:48;4.20;;;2.20;;
61188;SDS011;47054;39.716;2.904;2023-03-01T01:10:33;6.70;;;2.40;;
61188;SDS011;47054;39.716;2.904;2023-03-01T01:13:18;5.55;;;2.10;;
61188;SDS011;47054;39.716;2.904;2023-03-01T01:16:03;6.28;;;2.53;;
61188;SDS011;47054;39.716;2.904;2023-03-01T01:18:48;5.63;;;2.70;;
61188;SDS011;47054;39.716;2.904;2023-03-01T01:21:33;4.22;;;1.90;;
61188;SDS011;47054;39.716;2.904;2023-03-01T01:24:18;4.50;;;2.45;;
61188;SDS011;47054;39.716;2.904;2023-03-01T01:27:03;4.60;;;2.20;;
61188;SDS011;47054;39.716;2.904;2023-03-01T01:29:48;5.80;;;2.30;;
61188;SDS011;47054;39.716;2.904;2023-03-01T01:32:32;4.90;;;2.28;;
61188;SDS011;47054;39.716;2.904;2023-03-01T01:35:17;5.60;;;2.10;;
61188;SDS011;47054;39.716;2.904;2023-03-01T01:38:02;6.13;;;2.10;;
61188;SDS011;47054;39.716;2.904;2023-03-01T01:40:46;5.03;;;2.60;;
61188;SDS011;47054;39.716;2.904;2023-03-01T01:43:37;3.50;;;1.85;;
61188;SDS011;47054;39.716;2.904;2023-03-01T01:46:28;8.57;;;2.17;;
61188;SDS011;47054;39.716;2.904;2023-03-01T01:49:38;3.58;;;2.00;;
61188;SDS011;47054;39.716;2.904;2023-03-01T01:52:27;4.63;;;2.05;;
61188;SDS011;47054;39.716;2.904;2023-03-01T01:55:20;9.07;;;2.55;;
61188;SDS011;47054;39.716;2.904;2023-03-01T01:58:08;4.72;;;1.95;;
61188;SDS011;47054;39.716;2.904;2023-03-01T02:00:55;5.15;;;2.25;;
61188;SDS011;47054;39.716;2.904;2023-03-01T02:03:40;5.72;;;2.17;;
61188;SDS011;47054;39.716;2.904;2023-03-01T02:06:29;4.50;;;1.95;;
61188;SDS011;47054;39.716;2.904;2023-03-01T02:09:19;5.05;;;1.92;;
61188;SDS011;47054;39.716;2.904;2023-03-01T02:12:05;3.45;;;1.95;;
61188;SDS011;47054;39.716;2.904;2023-03-01T02:14:51;4.63;;;2.10;;
61188;SDS011;47054;39.716;2.904;2023-03-01T02:17:36;4.05;;;2.10;;
61188;SDS011;47054;39.716;2.904;2023-03-01T02:23:30;3.75;;;1.73;;
61188;SDS011;47054;39.716;2.904;2023-03-01T02:26:33;4.82;;;2.10;;
61188;SDS011;47054;39.716;2.904;2023-03-01T02:29:24;3.60;;;1.90;;
61188;SDS011;47054;39.716;2.904;2023-03-01T02:32:10;3.85;;;2.10;;
61188;SDS011;47054;39.716;2.904;2023-03-01T02:34:56;3.15;;;1.80;;
61188;SDS011;47054;39.716;2.904;2023-03-01T02:37:42;4.03;;;2.00;;
61188;SDS011;47054;39.716;2.904;2023-03-01T02:40:29;3.08;;;1.80;;
61188;SDS011;47054;39.716;2.904;2023-03-01T02:43:17;4.75;;;1.98;;
61188;SDS011;47054;39.716;2.904;2023-03-01T02:46:07;7.28;;;2.08;;
61188;SDS011;47054;39.716;2.904;2023-03-01T02:48:58;4.10;;;1.90;;
61188;SDS011;47054;39.716;2.904;2023-03-01T02:57:43;4.68;;;1.95;;
61188;SDS011;47054;39.716;2.904;2023-03-01T03:00:39;3.00;;;1.67;;
61188;SDS011;47054;39.716;2.904;2023-03-01T03:03:30;6.13;;;1.88;;
61188;SDS011;47054;39.716;2.904;2023-03-01T03:06:15;4.88;;;1.80;;
61188;SDS011;47054;39.716;2.904;2023-03-01T03:09:00;5.10;;;1.98;;
61188;SDS011;47054;39.716;2.904;2023-03-01T03:11:45;4.78;;;2.00;;
61188;SDS011;47054;39.716;2.904;2023-03-01T03:14:31;4.30;;;1.98;;
61188;SDS011;47054;39.716;2.904;2023-03-01T03:17:19;4.75;;;1.90;;
61188;SDS011;47054;39.716;2.904;2023-03-01T03:20:04;4.43;;;1.95;;
61188;SDS011;47054;39.716;2.904;2023-03-01T03:22:50;3.22;;;1.80;;
61188;SDS011;47054;39.716;2.904;2023-03-01T03:25:37;4.38;;;2.00;;
61188;SDS011;47054;39.716;2.904;2023-03-01T03:28:22;5.50;;;1.63;;
61188;SDS011;47054;39.716;2.904;2023-03-01T03:31:07;3.35;;;1.70;;
61188;SDS011;47054;39.716;2.904;2023-03-01T03:33:52;4.25;;;1.95;;
61188;SDS011;47054;39.716;2.904;2023-03-01T03:36:37;5.40;;;1.95;;
61188;SDS011;47054;39.716;2.904;2023-03-01T03:39:22;6.95;;;1.85;;
61188;SDS011;47054;39.716;2.904;2023-03-01T03:42:07;4.93;;;1.85;;
61188;SDS011;47054;39.716;2.904;2023-03-01T03:44:54;4.60;;;1.58;;
61188;SDS011;47054;39.716;2.904;2023-03-01T03:47:38;3.72;;;1.98;;
61188;SDS011;47054;39.716;2.904;2023-03-01T03:50:23;4.75;;;2.38;;
61188;SDS011;47054;39.716;2.904;2023-03-01T03:53:09;6.00;;;1.80;;
61188;SDS011;47054;39.716;2.904;2023-03-01T03:55:55;7.00;;;2.20;;
61188;SDS011;47054;39.716;2.904;2023-03-01T03:58:39;3.72;;;1.63;;
61188;SDS011;47054;39.716;2.904;2023-03-01T04:01:24;3.50;;;1.90;;
61188;SDS011;47054;39.716;2.904;2023-03-01T04:04:09;5.25;;;1.88;;
61188;SDS011;47054;39.716;2.904;2023-03-01T04:06:54;4.88;;;2.10;;
61188;SDS011;47054;39.716;2.904;2023-03-01T04:09:38;7.03;;;2.25;;
61188;SDS011;47054;39.716;2.904;2023-03-01T04:12:22;6.20;;;1.70;;
61188;SDS011;47054;39.716;2.904;2023-03-01T04:15:07;3.55;;;1.80;;
61188;SDS011;47054;39.716;2.904;2023-03-01T04:17:58;3.45;;;1.55;;
61188;SDS011;47054;39.716;2.904;2023-03-01T04:20:44;5.30;;;1.80;;
61188;SDS011;47054;39.716;2.904;2023-03-01T04:23:29;3.35;;;1.88;;
61188;SDS011;47054;39.716;2.904;2023-03-01T04:26:13;2.83;;;1.60;;
61188;SDS011;47054;39.716;2.904;2023-03-01T04:28:58;2.78;;;1.50;;
61188;SDS011;47054;39.716;2.904;2023-03-01T04:31:42;4.72;;;1.85;;
61188;SDS011;47054;39.716;2.904;2023-03-01T04:34:27;3.40;;;1.75;;
61188;SDS011;47054;39.716;2.904;2023-03-01T04:37:11;3.83;;;1.60;;
61188;SDS011;47054;39.716;2.904;2023-03-01T04:39:56;5.15;;;1.92;;
61188;SDS011;47054;39.716;2.904;2023-03-01T04:42:41;5.75;;;2.20;;
61188;SDS011;47054;39.716;2.904;2023-03-01T04:45:26;4.30;;;1.75;;
61188;SDS011;47054;39.716;2.904;2023-03-01T04:48:11;5.32;;;1.92;;
61188;SDS011;47054;39.716;2.904;2023-03-01T04:50:56;2.85;;;1.50;;
61188;SDS011;47054;39.716;2.904;2023-03-01T04:53:40;3.40;;;1.60;;
61188;SDS011;47054;39.716;2.904;2023-03-01T04:56:26;3.47;;;1.77;;
61188;SDS011;47054;39.716;2.904;2023-03-01T04:59:10;1.83;;;1.30;;
61188;SDS011;47054;39.716;2.904;2023-03-01T05:01:56;4.10;;;1.60;;
61188;SDS011;47054;39.716;2.904;2023-03-01T05:04:40;3.20;;;1.52;;
61188;SDS011;47054;39.716;2.904;2023-03-01T05:07:25;3.03;;;1.70;;
61188;SDS011;47054;39.716;2.904;2023-03-01T05:10:10;2.83;;;1.50;;
61188;SDS011;47054;39.716;2.904;2023-03-01T05:12:55;2.60;;;1.35;;
61188;SDS011;47054;39.716;2.904;2023-03-01T05:15:41;3.30;;;1.70;;
61188;SDS011;47054;39.716;2.904;2023-03-01T05:18:26;4.82;;;1.52;;
61188;SDS011;47054;39.716;2.904;2023-03-01T05:21:13;2.92;;;1.35;;
61188;SDS011;47054;39.716;2.904;2023-03-01T05:24:00;3.88;;;1.85;;
61188;SDS011;47054;39.716;2.904;2023-03-01T05:26:45;4.10;;;1.58;;
61188;SDS011;47054;39.716;2.904;2023-03-01T05:29:32;2.78;;;1.48;;
61188;SDS011;47054;39.716;2.904;2023-03-01T05:32:18;4.10;;;1.70;;
61188;SDS011;47054;39.716;2.904;2023-03-01T05:35:03;3.65;;;1.63;;
61188;SDS011;47054;39.716;2.904;2023-03-01T05:37:48;3.40;;;1.63;;
61188;SDS011;47054;39.716;2.904;2023-03-01T05:40:34;2.78;;;1.60;;
61188;SDS011;47054;39.716;2.904;2023-03-01T05:43:19;3.20;;;1.50;;
61188;SDS011;47054;39.716;2.904;2023-03-01T05:46:03;3.65;;;1.65;;
61188;SDS011;47054;39.716;2.904;2023-03-01T05:48:48;2.40;;;1.20;;
61188;SDS011;47054;39.716;2.904;2023-03-01T05:51:33;4.60;;;1.58;;
61188;SDS011;47054;39.716;2.904;2023-03-01T05:54:19;3.28;;;1.70;;
61188;SDS011;47054;39.716;2.904;2023-03-01T05:57:04;4.47;;;1.40;;
61188;SDS011;47054;39.716;2.904;2023-03-01T05:59:49;2.58;;;1.40;;
61188;SDS011;47054;39.716;2.904;2023-03-01T06:02:34;5.25;;;1.85;;
61188;SDS011;47054;39.716;2.904;2023-03-01T06:05:18;3.47;;;1.65;;
61188;SDS011;47054;39.716;2.904;2023-03-01T06:08:03;3.17;;;1.50;;
61188;SDS011;47054;39.716;2.904;2023-03-01T06:10:48;2.97;;;1.40;;
61188;SDS011;47054;39.716;2.904;2023-03-01T06:13:32;3.45;;;1.60;;
61188;SDS011;47054;39.716;2.904;2023-03-01T06:16:17;2.30;;;1.38;;
61188;SDS011;47054;39.716;2.904;2023-03-01T06:19:02;2.75;;;1.50;;
61188;SDS011;47054;39.716;2.904;2023-03-01T06:21:46;2.72;;;1.45;;
61188;SDS011;47054;39.716;2.904;2023-03-01T06:24:31;2.92;;;1.45;;
61188;SDS011;47054;39.716;2.904;2023-03-01T06:27:15;3.42;;;1.33;;
61188;SDS011;47054;39.716;2.904;2023-03-01T06:30:00;6.65;;;1.63;;
61188;SDS011;47054;39.716;2.904;2023-03-01T06:32:46;2.95;;;1.50;;
61188;SDS011;47054;39.716;2.904;2023-03-01T06:35:31;4.22;;;1.50;;
61188;SDS011;47054;39.716;2.904;2023-03-01T06:38:16;2.88;;;1.60;;
61188;SDS011;47054;39.716;2.904;2023-03-01T06:41:04;2.97;;;1.50;;
61188;SDS011;47054;39.716;2.904;2023-03-01T06:43:48;4.05;;;1.58;;
61188;SDS011;47054;39.716;2.904;2023-03-01T06:46:32;2.45;;;1.38;;
61188;SDS011;47054;39.716;2.904;2023-03-01T06:49:17;3.05;;;1.52;;
61188;SDS011;47054;39.716;2.904;2023-03-01T06:52:02;2.88;;;1.50;;
61188;SDS011;47054;39.716;2.904;2023-03-01T06:54:47;2.70;;;1.70;;
61188;SDS011;47054;39.716;2.904;2023-03-01T06:57:31;5.10;;;1.40;;
61188;SDS011;47054;39.716;2.904;2023-03-01T07:00:16;3.20;;;1.42;;
61188;SDS011;47054;39.716;2.904;2023-03-01T07:03:01;3.80;;;1.52;;
61188;SDS011;47054;39.716;2.904;2023-03-01T07:05:50;3.00;;;1.30;;
61188;SDS011;47054;39.716;2.904;2023-03-01T07:08:38;2.78;;;1.50;;
61188;SDS011;47054;39.716;2.904;2023-03-01T07:11:23;2.00;;;1.20;;
61188;SDS011;47054;39.716;2.904;2023-03-01T07:14:08;3.00;;;1.70;;
61188;SDS011;47054;39.716;2.904;2023-03-01T07:16:53;2.88;;;1.20;;
61188;SDS011;47054;39.716;2.904;2023-03-01T07:19:38;2.22;;;1.50;;
61188;SDS011;47054;39.716;2.904;2023-03-01T07:22:23;3.58;;;1.60;;
61188;SDS011;47054;39.716;2.904;2023-03-01T07:25:08;2.47;;;1.40;;
61188;SDS011;47054;39.716;2.904;2023-03-01T07:27:53;2.78;;;1.50;;
61188;SDS011;47054;39.716;2.904;2023-03-01T07:30:38;4.68;;;1.63;;
61188;SDS011;47054;39.716;2.904;2023-03-01T07:33:24;5.53;;;1.30;;
61188;SDS011;47054;39.716;2.904;2023-03-01T07:36:09;2.28;;;1.50;;
61188;SDS011;47054;39.716;2.904;2023-03-01T07:38:53;4.00;;;1.60;;
61188;SDS011;47054;39.716;2.904;2023-03-01T07:41:39;5.10;;;1.45;;
61188;SDS011;47054;39.716;2.904;2023-03-01T07:44:24;4.00;;;1.80;;
61188;SDS011;47054;39.716;2.904;2023-03-01T07:47:08;3.40;;;1.50;;
61188;SDS011;47054;39.716;2.904;2023-03-01T07:49:53;1.90;;;1.30;;
61188;SDS011;47054;39.716;2.904;2023-03-01T07:52:38;3.22;;;1.50;;
61188;SDS011;47054;39.716;2.904;2023-03-01T07:55:22;4.18;;;1.60;;
61188;SDS011;47054;39.716;2.904;2023-03-01T07:58:06;2.53;;;1.30;;
61188;SDS011;47054;39.716;2.904;2023-03-01T08:00:51;2.47;;;1.38;;
61188;SDS011;47054;39.716;2.904;2023-03-01T08:03:36;3.50;;;1.58;;
61188;SDS011;47054;39.716;2.904;2023-03-01T08:06:21;4.65;;;1.55;;
61188;SDS011;47054;39.716;2.904;2023-03-01T08:09:06;2.35;;;1.30;;
61188;SDS011;47054;39.716;2.904;2023-03-01T08:11:51;3.78;;;1.70;;
61188;SDS011;47054;39.716;2.904;2023-03-01T08:14:36;2.67;;;1.55;;
61188;SDS011;47054;39.716;2.904;2023-03-01T08:17:21;3.92;;;1.33;;
61188;SDS011;47054;39.716;2.904;2023-03-01T08:20:06;2.35;;;1.50;;
61188;SDS011;47054;39.716;2.904;2023-03-01T08:22:51;2.35;;;1.45;;
61188;SDS011;47054;39.716;2.904;2023-03-01T08:25:36;3.22;;;1.40;;
61188;SDS011;47054;39.716;2.904;2023-03-01T08:28:21;2.90;;;1.33;;
61188;SDS011;47054;39.716;2.904;2023-03-01T08:31:30;4.05;;;1.45;;
61188;SDS011;47054;39.716;2.904;2023-03-01T08:34:13;2.83;;;1.50;;
61188;SDS011;47054;39.716;2.904;2023-03-01T08:36:59;2.72;;;1.40;;
61188;SDS011;47054;39.716;2.904;2023-03-01T08:39:43;3.47;;;1.30;;
61188;SDS011;47054;39.716;2.904;2023-03-01T08:42:28;3.65;;;1.60;;
61188;SDS011;47054;39.716;2.904;2023-03-01T08:45:12;3.08;;;1.42;;
61188;SDS011;47054;39.716;2.904;2023-03-01T08:48:02;2.10;;;1.30;;
61188;SDS011;47054;39.716;2.904;2023-03-01T08:50:46;2.67;;;1.35;;
61188;SDS011;47054;39.716;2.904;2023-03-01T08:53:31;3.10;;;1.48;;
61188;SDS011;47054;39.716;2.904;2023-03-01T08:56:15;3.42;;;1.45;;
61188;SDS011;47054;39.716;2.904;2023-03-01T08:59:02;2.00;;;1.27;;
61188;SDS011;47054;39.716;2.904;2023-03-01T09:01:47;2.60;;;1.30;;
61188;SDS011;47054;39.716;2.904;2023-03-01T09:04:31;2.50;;;1.40;;
61188;SDS011;47054;39.716;2.904;2023-03-01T09:07:17;2.67;;;1.40;;
61188;SDS011;47054;39.716;2.904;2023-03-01T09:10:02;2.75;;;1.40;;
61188;SDS011;47054;39.716;2.904;2023-03-01T09:12:47;3.88;;;1.33;;
61188;SDS011;47054;39.716;2.904;2023-03-01T09:15:31;1.83;;;1.40;;
61188;SDS011;47054;39.716;2.904;2023-03-01T09:18:17;2.75;;;1.30;;
61188;SDS011;47054;39.716;2.904;2023-03-01T09:21:03;2.20;;;1.33;;
61188;SDS011;47054;39.716;2.904;2023-03-01T09:23:53;2.85;;;1.35;;
61188;SDS011;47054;39.716;2.904;2023-03-01T09:26:40;2.58;;;1.38;;
61188;SDS011;47054;39.716;2.904;2023-03-01T09:29:25;2.28;;;1.23;;
61188;SDS011;47054;39.716;2.904;2023-03-01T09:32:10;1.98;;;1.40;;
61188;SDS011;47054;39.716;2.904;2023-03-01T09:34:55;2.58;;;1.50;;
61188;SDS011;47054;39.716;2.904;2023-03-01T09:40:34;2.95;;;1.35;;
61188;SDS011;47054;39.716;2.904;2023-03-01T09:43:20;1.77;;;1.13;;
61188;SDS011;47054;39.716;2.904;2023-03-01T09:46:09;1.92;;;1.25;;
61188;SDS011;47054;39.716;2.904;2023-03-01T09:49:00;1.80;;;1.30;;
61188;SDS011;47054;39.716;2.904;2023-03-01T09:51:54;2.20;;;1.15;;
61188;SDS011;47054;39.716;2.904;2023-03-01T09:54:41;1.98;;;1.25;;
61188;SDS011;47054;39.716;2.904;2023-03-01T10:00:43;2.13;;;1.27;;
61188;SDS011;47054;39.716;2.904;2023-03-01T10:10:29;1.85;;;1.08;;
61188;SDS011;47054;39.716;2.904;2023-03-01T10:13:26;2.13;;;1.40;;
61188;SDS011;47054;39.716;2.904;2023-03-01T10:16:19;2.35;;;1.20;;
61188;SDS011;47054;39.716;2.904;2023-03-01T10:19:11;2.65;;;1.30;;
61188;SDS011;47054;39.716;2.904;2023-03-01T10:22:07;1.90;;;1.08;;
61188;SDS011;47054;39.716;2.904;2023-03-01T10:24:59;2.67;;;1.35;;
61188;SDS011;47054;39.716;2.904;2023-03-01T10:27:51;2.20;;;1.15;;
61188;SDS011;47054;39.716;2.904;2023-03-01T10:30:38;2.22;;;1.17;;
61188;SDS011;47054;39.716;2.904;2023-03-01T10:33:27;2.20;;;1.20;;
61188;SDS011;47054;39.716;2.904;2023-03-01T10:36:17;1.85;;;1.17;;
61188;SDS011;47054;39.716;2.904;2023-03-01T10:39:01;2.35;;;1.30;;
61188;SDS011;47054;39.716;2.904;2023-03-01T10:42:03;2.65;;;1.33;;
61188;SDS011;47054;39.716;2.904;2023-03-01T10:44:50;1.17;;;0.90;;
61188;SDS011;47054;39.716;2.904;2023-03-01T10:47:34;2.15;;;1.10;;
61188;SDS011;47054;39.716;2.904;2023-03-01T10:50:20;2.30;;;1.25;;
61188;SDS011;47054;39.716;2.904;2023-03-01T10:56:04;2.30;;;1.25;;
61188;SDS011;47054;39.716;2.904;2023-03-01T10:58:59;2.20;;;1.30;;
61188;SDS011;47054;39.716;2.904;2023-03-01T11:01:49;1.75;;;1.15;;
61188;SDS011;47054;39.716;2.904;2023-03-01T11:08:09;2.47;;;1.20;;
61188;SDS011;47054;39.716;2.904;2023-03-01T11:11:01;2.72;;;1.30;;
61188;SDS011;47054;39.716;2.904;2023-03-01T11:13:54;1.45;;;0.98;;
61188;SDS011;47054;39.716;2.904;2023-03-01T11:16:41;2.25;;;1.23;;
61188;SDS011;47054;39.716;2.904;2023-03-01T11:19:28;1.70;;;1.08;;
61188;SDS011;47054;39.716;2.904;2023-03-01T11:22:14;4.28;;;1.50;;
61188;SDS011;47054;39.716;2.904;2023-03-01T11:25:04;2.38;;;1.42;;
61188;SDS011;47054;39.716;2.904;2023-03-01T11:27:49;4.03;;;1.70;;
61188;SDS011;47054;39.716;2.904;2023-03-01T11:30:35;6.57;;;1.92;;
61188;SDS011;47054;39.716;2.904;2023-03-01T11:33:53;4.20;;;1.95;;
61188;SDS011;47054;39.716;2.904;2023-03-01T11:37:03;3.72;;;2.13;;
61188;SDS011;47054;39.716;2.904;2023-03-01T11:39:58;7.93;;;2.33;;
61188;SDS011;47054;39.716;2.904;2023-03-01T11:46:27;6.05;;;2.10;;
61188;SDS011;47054;39.716;2.904;2023-03-01T11:55:08;4.75;;;1.90;;
61188;SDS011;47054;39.716;2.904;2023-03-01T12:10:19;4.40;;;1.63;;
61188;SDS011;47054;39.716;2.904;2023-03-01T12:22:30;4.05;;;2.00;;
61188;SDS011;47054;39.716;2.904;2023-03-01T12:28:30;8.48;;;3.38;;
61188;SDS011;47054;39.716;2.904;2023-03-01T12:40:38;6.78;;;2.40;;
61188;SDS011;47054;39.716;2.904;2023-03-01T12:49:43;13.40;;;3.28;;
61188;SDS011;47054;39.716;2.904;2023-03-01T12:55:36;8.50;;;3.13;;
61188;SDS011;47054;39.716;2.904;2023-03-01T13:05:24;6.47;;;2.25;;
61188;SDS011;47054;39.716;2.904;2023-03-01T13:11:01;3.63;;;1.95;;
61188;SDS011;47054;39.716;2.904;2023-03-01T13:13:48;4.95;;;2.30;;
61188;SDS011;47054;39.716;2.904;2023-03-01T13:16:39;4.38;;;2.22;;
61188;SDS011;47054;39.716;2.904;2023-03-01T13:19:29;4.18;;;2.40;;
61188;SDS011;47054;39.716;2.904;2023-03-01T13:22:26;4.35;;;2.35;;
61188;SDS011;47054;39.716;2.904;2023-03-01T13:25:17;6.15;;;3.00;;
61188;SDS011;47054;39.716;2.904;2023-03-01T13:37:36;7.85;;;3.38;;
61188;SDS011;47054;39.716;2.904;2023-03-01T13:43:41;5.10;;;2.33;;
61188;SDS011;47054;39.716;2.904;2023-03-01T13:46:23;10.68;;;2.78;;
61188;SDS011;47054;39.716;2.904;2023-03-01T13:49:09;3.67;;;2.22;;
61188;SDS011;47054;39.716;2.904;2023-03-01T13:51:58;4.78;;;2.33;;
61188;SDS011;47054;39.716;2.904;2023-03-01T13:54:43;6.05;;;2.10;;
61188;SDS011;47054;39.716;2.904;2023-03-01T13:57:30;3.38;;;1.80;;
61188;SDS011;47054;39.716;2.904;2023-03-01T14:03:20;7.77;;;2.27;;
61188;SDS011;47054;39.716;2.904;2023-03-01T14:06:09;4.50;;;2.30;;
61188;SDS011;47054;39.716;2.904;2023-03-01T14:09:17;8.52;;;2.47;;
61188;SDS011;47054;39.716;2.904;2023-03-01T14:15:38;4.50;;;1.92;;
61188;SDS011;47054;39.716;2.904;2023-03-01T14:18:36;4.43;;;2.08;;
61188;SDS011;47054;39.716;2.904;2023-03-01T14:21:29;7.22;;;2.15;;
61188;SDS011;47054;39.716;2.904;2023-03-01T14:24:18;8.43;;;2.30;;
61188;SDS011;47054;39.716;2.904;2023-03-01T14:27:08;4.43;;;2.20;;
61188;SDS011;47054;39.716;2.904;2023-03-01T14:29:57;3.78;;;2.47;;
61188;SDS011;47054;39.716;2.904;2023-03-01T14:32:43;7.15;;;2.65;;
61188;SDS011;47054;39.716;2.904;2023-03-01T14:35:37;4.90;;;2.30;;
61188;SDS011;47054;39.716;2.904;2023-03-01T14:38:39;3.95;;;2.30;;
61188;SDS011;47054;39.716;2.904;2023-03-01T14:41:25;3.85;;;2.30;;
61188;SDS011;47054;39.716;2.904;2023-03-01T14:44:14;4.65;;;2.22;;
61188;SDS011;47054;39.716;2.904;2023-03-01T14:47:04;6.97;;;2.03;;
61188;SDS011;47054;39.716;2.904;2023-03-01T14:49:49;4.38;;;1.77;;
61188;SDS011;47054;39.716;2.904;2023-03-01T14:52:44;4.22;;;2.10;;
61188;SDS011;47054;39.716;2.904;2023-03-01T14:55:37;4.18;;;1.85;;
61188;SDS011;47054;39.716;2.904;2023-03-01T14:58:25;4.35;;;2.00;;
61188;SDS011;47054;39.716;2.904;2023-03-01T15:01:12;5.80;;;1.80;;
61188;SDS011;47054;39.716;2.904;2023-03-01T15:03:59;5.88;;;2.20;;
61188;SDS011;47054;39.716;2.904;2023-03-01T15:06:45;3.92;;;1.98;;
61188;SDS011;47054;39.716;2.904;2023-03-01T15:09:32;4.75;;;2.40;;
61188;SDS011;47054;39.716;2.904;2023-03-01T15:18:16;4.38;;;1.80;;
61188;SDS011;47054;39.716;2.904;2023-03-01T15:21:13;5.32;;;1.65;;
61188;SDS011;47054;39.716;2.904;2023-03-01T15:27:18;4.15;;;1.90;;
61188;SDS011;47054;39.716;2.904;2023-03-01T15:30:06;4.85;;;2.30;;
61188;SDS011;47054;39.716;2.904;2023-03-01T15:48:05;6.93;;;2.05;;
61188;SDS011;47054;39.716;2.904;2023-03-01T15:50:59;8.50;;;1.90;;
61188;SDS011;47054;39.716;2.904;2023-03-01T15:53:48;6.00;;;2.20;;
61188;SDS011;47054;39.716;2.904;2023-03-01T15:56:35;3.45;;;1.80;;
61188;SDS011;47054;39.716;2.904;2023-03-01T15:59:19;5.45;;;2.20;;
61188;SDS011;47054;39.716;2.904;2023-03-01T16:02:09;3.30;;;1.90;;
61188;SDS011;47054;39.716;2.904;2023-03-01T16:04:56;4.55;;;1.90;;
61188;SDS011;47054;39.716;2.904;2023-03-01T16:07:41;4.70;;;1.60;;
61188;SDS011;47054;39.716;2.904;2023-03-01T16:10:26;3.90;;;1.77;;
61188;SDS011;47054;39.716;2.904;2023-03-01T16:13:11;3.45;;;1.75;;
61188;SDS011;47054;39.716;2.904;2023-03-01T16:15:57;3.33;;;1.75;;
61188;SDS011;47054;39.716;2.904;2023-03-01T16:18:43;5.43;;;1.70;;
61188;SDS011;47054;39.716;2.904;2023-03-01T16:21:29;4.40;;;1.67;;
61188;SDS011;47054;39.716;2.904;2023-03-01T16:24:14;4.03;;;1.60;;
61188;SDS011;47054;39.716;2.904;2023-03-01T16:27:00;4.05;;;1.63;;
61188;SDS011;47054;39.716;2.904;2023-03-01T16:29:44;2.55;;;1.50;;
61188;SDS011;47054;39.716;2.904;2023-03-01T16:34:17;6.72;;;2.00;;
61188;SDS011;47054;39.716;2.904;2023-03-01T16:37:01;3.22;;;1.60;;
61188;SDS011;47054;39.716;2.904;2023-03-01T16:39:46;3.47;;;1.60;;
61188;SDS011;47054;39.716;2.904;2023-03-01T16:42:34;3.40;;;1.73;;
61188;SDS011;47054;39.716;2.904;2023-03-01T16:45:25;3.92;;;1.63;;
61188;SDS011;47054;39.716;2.904;2023-03-01T16:48:11;5.00;;;1.77;;
61188;SDS011;47054;39.716;2.904;2023-03-01T16:51:00;5.40;;;1.73;;
61188;SDS011;47054;39.716;2.904;2023-03-01T16:53:45;8.55;;;2.03;;
61188;SDS011;47054;39.716;2.904;2023-03-01T16:56:30;4.18;;;1.92;;
61188;SDS011;47054;39.716;2.904;2023-03-01T16:59:17;4.13;;;1.52;;
61188;SDS011;47054;39.716;2.904;2023-03-01T17:02:08;2.67;;;1.40;;
61188;SDS011;47054;39.716;2.904;2023-03-01T17:04:55;5.33;;;1.60;;
61188;SDS011;47054;39.716;2.904;2023-03-01T17:07:40;3.25;;;1.40;;
61188;SDS011;47054;39.716;2.904;2023-03-01T17:10:25;5.63;;;1.80;;
61188;SDS011;47054;39.716;2.904;2023-03-01T17:13:09;2.95;;;1.77;;
61188;SDS011;47054;39.716;2.904;2023-03-01T17:15:55;3.28;;;1.60;;
61188;SDS011;47054;39.716;2.904;2023-03-01T17:18:44;5.03;;;1.70;;
61188;SDS011;47054;39.716;2.904;2023-03-01T17:21:29;2.47;;;1.40;;
61188;SDS011;47054;39.716;2.904;2023-03-01T17:24:14;3.20;;;1.70;;
61188;SDS011;47054;39.716;2.904;2023-03-01T17:26:59;2.17;;;1.52;;
61188;SDS011;47054;39.716;2.904;2023-03-01T17:29:44;3.25;;;1.45;;
61188;SDS011;47054;39.716;2.904;2023-03-01T17:32:28;2.13;;;1.30;;
61188;SDS011;47054;39.716;2.904;2023-03-01T17:35:13;3.47;;;1.52;;
61188;SDS011;47054;39.716;2.904;2023-03-01T17:37:58;4.88;;;1.60;;
61188;SDS011;47054;39.716;2.904;2023-03-01T17:40:42;2.15;;;1.25;;
61188;SDS011;47054;39.716;2.904;2023-03-01T17:43:31;2.30;;;1.48;;
61188;SDS011;47054;39.716;2.904;2023-03-01T17:46:18;3.25;;;1.45;;
61188;SDS011;47054;39.716;2.904;2023-03-01T17:49:02;2.38;;;1.40;;
61188;SDS011;47054;39.716;2.904;2023-03-01T17:51:47;2.40;;;1.60;;
61188;SDS011;47054;39.716;2.904;2023-03-01T17:54:31;3.55;;;1.83;;
61188;SDS011;47054;39.716;2.904;2023-03-01T17:57:16;2.97;;;1.63;;
61188;SDS011;47054;39.716;2.904;2023-03-01T18:00:01;3.53;;;1.50;;
61188;SDS011;47054;39.716;2.904;2023-03-01T18:02:55;2.78;;;1.42;;
61188;SDS011;47054;39.716;2.904;2023-03-01T18:05:40;2.67;;;1.40;;
61188;SDS011;47054;39.716;2.904;2023-03-01T18:08:24;3.97;;;1.77;;
61188;SDS011;47054;39.716;2.904;2023-03-01T18:11:09;2.88;;;1.50;;
61188;SDS011;47054;39.716;2.904;2023-03-01T18:13:55;2.53;;;1.40;;
61188;SDS011;47054;39.716;2.904;2023-03-01T18:16:39;3.08;;;1.60;;
61188;SDS011;47054;39.716;2.904;2023-03-01T18:19:24;2.85;;;1.65;;
61188;SDS011;47054;39.716;2.904;2023-03-01T18:22:08;2.78;;;1.75;;
61188;SDS011;47054;39.716;2.904;2023-03-01T18:24:53;3.20;;;1.70;;
61188;SDS011;47054;39.716;2.904;2023-03-01T18:27:38;3.67;;;1.80;;
61188;SDS011;47054;39.716;2.904;2023-03-01T18:30:23;3.47;;;1.70;;
61188;SDS011;47054;39.716;2.904;2023-03-01T18:33:08;3.05;;;1.83;;
61188;SDS011;47054;39.716;2.904;2023-03-01T18:35:52;2.88;;;1.70;;
61188;SDS011;47054;39.716;2.904;2023-03-01T18:38:37;3.78;;;1.73;;
61188;SDS011;47054;39.716;2.904;2023-03-01T18:41:22;3.45;;;1.98;;
61188;SDS011;47054;39.716;2.904;2023-03-01T18:44:08;4.38;;;2.10;;
61188;SDS011;47054;39.716;2.904;2023-03-01T18:46:54;3.97;;;2.20;;
61188;SDS011;47054;39.716;2.904;2023-03-01T18:49:41;5.13;;;2.65;;
61188;SDS011;47054;39.716;2.904;2023-03-01T18:52:27;7.00;;;2.60;;
61188;SDS011;47054;39.716;2.904;2023-03-01T18:55:11;7.43;;;3.33;;
61188;SDS011;47054;39.716;2.904;2023-03-01T18:57:56;5.97;;;2.90;;
61188;SDS011;47054;39.716;2.904;2023-03-01T19:00:40;7.25;;;3.10;;
61188;SDS011;47054;39.716;2.904;2023-03-01T19:03:26;6.28;;;2.72;;